createdAt,value
2019-01-10T00:01:34.456Z,1.13
2019-01-10T00:04:04.770Z,1.47
2019-01-10T00:06:34.588Z,1.50
2019-01-10T00:09:06.777Z,1.40
2019-01-10T00:11:37.419Z,1.13
2019-01-10T00:14:07.752Z,0.90
2019-01-10T00:16:37.809Z,1.30
2019-01-10T00:19:08.526Z,1.13
2019-01-10T00:21:39.145Z,1.10
2019-01-10T00:24:09.857Z,1.20
2019-01-10T00:26:40.118Z,1.40
2019-01-10T00:29:10.660Z,1.20
2019-01-10T00:31:40.933Z,1.82
2019-01-10T00:34:11.499Z,1.20
2019-01-10T00:36:42.552Z,1.10
2019-01-10T00:39:13.050Z,1.17
2019-01-10T00:41:46.776Z,1.80
2019-01-10T00:44:17.425Z,1.47
2019-01-10T00:46:48.193Z,1.30
2019-01-10T00:49:18.564Z,1.47
2019-01-10T00:51:48.570Z,1.30
2019-01-10T00:54:19.872Z,1.50
2019-01-10T00:56:49.545Z,1.30
2019-01-10T00:59:19.562Z,1.20
2019-01-10T01:02:00.073Z,1.00
2019-01-10T01:04:29.929Z,1.50
2019-01-10T01:07:02.861Z,1.13
2019-01-10T01:09:32.768Z,1.30
2019-01-10T01:12:02.496Z,1.27
2019-01-10T01:14:32.534Z,1.47
2019-01-10T01:17:03.058Z,1.63
2019-01-10T01:19:32.664Z,1.23
2019-01-10T01:22:03.064Z,1.67
2019-01-10T01:24:32.735Z,1.33
2019-01-10T01:27:03.544Z,0.90
2019-01-10T01:29:33.974Z,1.30
2019-01-10T01:32:04.399Z,1.27
2019-01-10T01:34:33.798Z,1.07
2019-01-10T01:37:03.731Z,1.00
2019-01-10T01:39:35.099Z,1.20
2019-01-10T01:42:05.166Z,1.00
2019-01-10T01:44:35.144Z,1.20
2019-01-10T01:47:06.416Z,1.00
2019-01-10T01:49:36.461Z,1.07
2019-01-10T01:52:06.494Z,1.00
2019-01-10T01:54:37.041Z,1.20
2019-01-10T01:57:06.799Z,1.57
2019-01-10T01:59:36.742Z,1.87
2019-01-10T02:02:07.273Z,1.13
2019-01-10T02:04:37.299Z,1.07
2019-01-10T02:07:08.372Z,1.47
2019-01-10T02:09:39.094Z,1.00
2019-01-10T02:12:09.020Z,0.90
2019-01-10T02:14:40.928Z,0.90
2019-01-10T02:17:10.864Z,1.20
2019-01-10T02:19:40.575Z,0.90
2019-01-10T02:22:11.502Z,1.10
2019-01-10T02:24:42.070Z,1.17
2019-01-10T02:27:11.945Z,1.23
2019-01-10T02:29:42.444Z,1.67
2019-01-10T02:32:12.279Z,1.00
2019-01-10T02:34:43.312Z,1.00
2019-01-10T02:37:13.189Z,0.90
2019-01-10T02:39:43.076Z,1.30
2019-01-10T02:42:13.678Z,0.80
2019-01-10T02:44:44.198Z,0.90
2019-01-10T02:47:13.928Z,0.90
2019-01-10T02:49:44.417Z,1.10
2019-01-10T02:52:14.765Z,1.10
2019-01-10T02:54:45.669Z,0.80
2019-01-10T02:57:15.657Z,0.80
2019-01-10T02:59:46.127Z,1.10
2019-01-10T03:02:16.156Z,0.90
2019-01-10T03:04:46.548Z,1.00
2019-01-10T03:07:16.457Z,0.90
2019-01-10T03:09:46.208Z,1.10
2019-01-10T03:12:16.597Z,1.17
2019-01-10T03:14:47.359Z,0.77
2019-01-10T03:17:17.872Z,1.30
2019-01-10T03:19:48.345Z,1.17
2019-01-10T03:22:19.806Z,1.07
2019-01-10T03:24:51.184Z,1.00
2019-01-10T03:27:21.568Z,1.13
2019-01-10T03:29:52.822Z,0.93
2019-01-10T03:32:22.625Z,0.97
2019-01-10T03:34:52.409Z,0.80
2019-01-10T03:37:23.437Z,1.17
2019-01-10T03:39:54.068Z,1.10
2019-01-10T03:42:24.312Z,1.10
2019-01-10T03:44:54.681Z,1.00
2019-01-10T03:47:24.312Z,0.90
2019-01-10T03:49:54.181Z,0.93
2019-01-10T03:52:23.826Z,1.10
2019-01-10T03:54:53.580Z,1.10
2019-01-10T03:57:23.245Z,0.80
2019-01-10T03:59:54.748Z,1.10
2019-01-10T04:02:26.584Z,1.10
2019-01-10T04:04:56.385Z,0.97
2019-01-10T04:07:26.841Z,1.00
2019-01-10T04:09:57.303Z,0.80
2019-01-10T04:12:27.956Z,0.83
2019-01-10T04:14:57.889Z,1.20
2019-01-10T04:17:27.888Z,1.00
2019-01-10T04:19:57.521Z,0.80
2019-01-10T04:22:29.672Z,1.17
2019-01-10T04:24:59.623Z,0.83
2019-01-10T04:27:29.328Z,1.17
2019-01-10T04:29:59.176Z,1.10
2019-01-10T04:32:31.129Z,0.70
2019-01-10T04:35:00.624Z,0.77
2019-01-10T04:37:31.464Z,0.90
2019-01-10T04:40:02.245Z,1.00
2019-01-10T04:42:32.599Z,0.90
2019-01-10T04:45:03.449Z,1.30
2019-01-10T04:47:33.181Z,1.00
2019-01-10T04:50:03.761Z,1.30
2019-01-10T04:52:34.264Z,0.80
2019-01-10T04:55:05.095Z,1.10
2019-01-10T04:57:35.513Z,1.27
2019-01-10T05:00:06.161Z,0.90
2019-01-10T05:02:35.756Z,1.43
2019-01-10T05:05:06.419Z,0.70
2019-01-10T05:07:36.757Z,1.30
2019-01-10T05:10:08.152Z,1.10
2019-01-10T05:12:37.789Z,1.10
2019-01-10T05:15:07.985Z,0.90
2019-01-10T05:17:37.551Z,1.23
2019-01-10T05:20:09.697Z,0.97
2019-01-10T05:22:39.404Z,0.98
2019-01-10T05:25:09.215Z,0.90
2019-01-10T05:27:39.769Z,0.90
2019-01-10T05:30:13.666Z,1.07
2019-01-10T05:32:44.116Z,1.40
2019-01-10T05:35:14.648Z,1.10
2019-01-10T05:37:45.008Z,1.27
2019-01-10T05:40:15.205Z,1.00
2019-01-10T05:42:45.908Z,1.20
2019-01-10T05:45:19.108Z,1.50
2019-01-10T05:47:49.746Z,1.65
2019-01-10T05:50:19.742Z,1.00
2019-01-10T05:52:49.701Z,1.60
2019-01-10T05:55:20.952Z,0.97
2019-01-10T05:57:51.339Z,1.03
2019-01-10T06:00:23.105Z,1.00
2019-01-10T06:02:53.660Z,1.30
2019-01-10T06:05:23.287Z,1.17
2019-01-10T06:07:53.396Z,1.30
2019-01-10T06:13:14.925Z,1.20
2019-01-10T06:15:44.484Z,1.40
2019-01-10T06:18:14.431Z,1.37
2019-01-10T06:20:45.737Z,1.10
2019-01-10T06:23:17.898Z,1.17
2019-01-10T06:25:47.307Z,1.00
2019-01-10T06:28:17.592Z,1.30
2019-01-10T06:30:47.435Z,1.17
2019-01-10T06:33:18.660Z,0.90
2019-01-10T06:35:48.589Z,1.40
2019-01-10T06:38:18.845Z,1.50
2019-01-10T06:40:50.267Z,1.20
2019-01-10T06:43:21.304Z,1.43
2019-01-10T06:45:50.843Z,1.50
2019-01-10T06:48:20.154Z,1.33
2019-01-10T06:50:51.153Z,1.00
2019-01-10T06:53:20.897Z,1.03
2019-01-10T06:55:50.573Z,1.03
2019-01-10T06:58:20.752Z,1.03
2019-01-10T07:00:50.348Z,1.30
2019-01-10T07:03:21.304Z,1.00
2019-01-10T07:05:51.764Z,1.10
2019-01-10T07:08:22.780Z,1.40
2019-01-10T07:10:52.523Z,1.10
2019-01-10T07:13:23.356Z,1.40
2019-01-10T07:15:54.301Z,1.17
2019-01-10T07:18:24.016Z,1.50
2019-01-10T07:20:54.476Z,1.30
2019-01-10T07:23:24.053Z,1.27
2019-01-10T07:25:55.753Z,1.70
2019-01-10T07:28:26.835Z,1.60
2019-01-10T07:30:57.968Z,1.50
2019-01-10T07:33:28.021Z,1.57
2019-01-10T07:35:58.836Z,1.63
2019-01-10T07:38:29.678Z,1.37
2019-01-10T07:41:00.096Z,1.43
2019-01-10T07:43:30.041Z,1.50
2019-01-10T07:46:05.293Z,1.60
2019-01-10T07:48:36.085Z,1.50
2019-01-10T07:51:05.826Z,1.50
2019-01-10T07:53:37.307Z,1.40
2019-01-10T07:56:08.183Z,1.20
2019-01-10T07:58:38.106Z,1.30
2019-01-10T08:01:13.272Z,1.50
2019-01-10T08:03:44.192Z,1.67
2019-01-10T08:06:15.193Z,1.40
2019-01-10T08:08:45.525Z,1.80
2019-01-10T08:11:15.271Z,1.47
2019-01-10T08:13:45.584Z,2.00
2019-01-10T08:16:15.493Z,1.80
2019-01-10T08:18:46.431Z,1.60
2019-01-10T08:21:18.931Z,2.23
2019-01-10T08:23:48.748Z,1.30
2019-01-10T08:26:20.152Z,1.50
2019-01-10T08:28:50.842Z,1.72
2019-01-10T08:31:22.088Z,1.80
2019-01-10T08:33:52.289Z,1.60
2019-01-10T08:36:32.195Z,1.57
2019-01-10T08:38:54.484Z,1.80
2019-01-10T08:41:24.097Z,1.47
2019-01-10T08:43:53.954Z,2.00
2019-01-10T08:46:23.712Z,2.67
2019-01-10T08:48:54.312Z,1.92
2019-01-10T08:51:24.449Z,2.07
2019-01-10T08:53:55.101Z,2.00
2019-01-10T08:56:24.941Z,2.40
2019-01-10T08:58:54.717Z,2.23
2019-01-10T09:01:26.233Z,3.00
2019-01-10T09:03:56.035Z,2.63
2019-01-10T09:06:26.864Z,2.57
2019-01-10T09:08:57.179Z,3.03
2019-01-10T09:11:27.674Z,2.90
2019-01-10T09:13:57.289Z,2.67
2019-01-10T09:16:27.624Z,2.63
2019-01-10T09:18:57.949Z,2.90
2019-01-10T09:21:28.492Z,2.97
2019-01-10T09:23:59.369Z,3.07
2019-01-10T09:26:37.441Z,3.07
2019-01-10T09:29:01.625Z,3.73
2019-01-10T09:31:31.930Z,4.20
2019-01-10T09:34:03.880Z,3.77
2019-01-10T09:36:34.218Z,3.42
2019-01-10T09:39:05.422Z,3.17
2019-01-10T09:41:35.245Z,2.70
2019-01-10T09:44:06.429Z,3.10
2019-01-10T09:46:37.035Z,3.00
2019-01-10T09:49:06.950Z,2.60
2019-01-10T09:51:38.041Z,4.47
2019-01-10T09:54:08.398Z,3.35
2019-01-10T09:56:38.865Z,3.33
2019-01-10T09:59:08.495Z,3.83
2019-01-10T10:01:38.345Z,3.80
2019-01-10T10:04:08.237Z,3.47
2019-01-10T10:06:38.462Z,3.67
2019-01-10T10:09:08.640Z,4.00
2019-01-10T10:11:38.557Z,3.93
2019-01-10T10:14:08.260Z,4.20
2019-01-10T10:16:38.215Z,4.20
2019-01-10T10:19:08.797Z,3.93
2019-01-10T10:21:38.509Z,3.97
2019-01-10T10:24:08.190Z,3.77
2019-01-10T10:26:38.135Z,3.97
2019-01-10T10:29:07.928Z,4.42
2019-01-10T10:31:38.161Z,4.23
2019-01-10T10:34:09.691Z,3.90
2019-01-10T10:36:40.128Z,3.77
2019-01-10T10:39:10.809Z,4.17
2019-01-10T10:41:41.096Z,3.02
2019-01-10T10:44:11.980Z,3.08
2019-01-10T10:46:41.919Z,3.30
2019-01-10T10:49:11.613Z,3.13
2019-01-10T10:51:42.340Z,2.77
2019-01-10T10:54:11.997Z,3.30
2019-01-10T10:56:41.929Z,2.87
2019-01-10T10:59:12.315Z,3.00
2019-01-10T11:01:41.737Z,2.80
2019-01-10T11:04:11.735Z,3.20
2019-01-10T11:06:43.033Z,2.77
2019-01-10T11:09:13.780Z,2.80
2019-01-10T11:11:44.305Z,2.87
2019-01-10T11:14:14.745Z,2.70
2019-01-10T11:16:45.069Z,2.80
2019-01-10T11:19:14.401Z,2.47
2019-01-10T11:21:44.365Z,2.60
2019-01-10T11:24:14.106Z,2.43
2019-01-10T11:26:44.023Z,2.07
2019-01-10T11:29:14.025Z,2.20
2019-01-10T11:31:44.508Z,2.30
2019-01-10T11:34:14.406Z,2.20
2019-01-10T11:36:44.057Z,2.13
2019-01-10T11:39:14.021Z,2.37
2019-01-10T11:41:45.105Z,2.47
2019-01-10T11:44:15.417Z,2.40
2019-01-10T11:46:45.251Z,2.73
2019-01-10T11:49:15.209Z,2.37
2019-01-10T11:51:45.606Z,2.00
2019-01-10T11:54:16.549Z,2.10
2019-01-10T11:56:46.316Z,2.00
2019-01-10T11:59:17.465Z,1.90
2019-01-10T12:01:47.933Z,2.27
2019-01-10T12:04:18.377Z,2.10
2019-01-10T12:06:48.348Z,2.40
2019-01-10T12:09:18.857Z,2.30
2019-01-10T12:11:48.854Z,1.90
2019-01-10T12:14:19.201Z,1.97
2019-01-10T12:16:49.021Z,2.43
2019-01-10T12:19:19.477Z,2.43
2019-01-10T12:21:50.269Z,2.17
2019-01-10T12:24:23.733Z,1.90
2019-01-10T12:26:53.908Z,2.20
2019-01-10T12:29:25.469Z,2.20
2019-01-10T12:31:55.445Z,2.87
2019-01-10T12:34:25.422Z,2.83
2019-01-10T12:37:00.261Z,2.00
2019-01-10T12:39:27.145Z,2.23
2019-01-10T12:41:56.862Z,2.20
2019-01-10T12:44:27.615Z,2.13
2019-01-10T12:46:58.921Z,1.90
2019-01-10T12:49:28.624Z,1.90
2019-01-10T12:51:59.353Z,2.25
2019-01-10T12:54:29.284Z,2.10
2019-01-10T12:57:00.372Z,1.50
2019-01-10T12:59:31.701Z,1.97
2019-01-10T13:02:02.328Z,1.27
2019-01-10T13:04:34.101Z,1.55
2019-01-10T13:07:03.989Z,1.20
2019-01-10T13:09:34.445Z,1.13
2019-01-10T13:12:05.081Z,1.70
2019-01-10T13:14:35.986Z,1.30
2019-01-10T13:17:06.328Z,1.53
2019-01-10T13:19:36.837Z,1.40
2019-01-10T13:22:07.257Z,0.93
2019-01-10T13:24:36.869Z,1.50
2019-01-10T13:27:07.744Z,1.00
2019-01-10T13:29:37.657Z,1.40
2019-01-10T13:32:08.166Z,0.97
2019-01-10T13:34:38.144Z,1.30
2019-01-10T13:37:07.962Z,1.00
2019-01-10T13:39:37.701Z,1.00
2019-01-10T13:42:07.317Z,1.23
2019-01-10T13:44:37.790Z,1.30
2019-01-10T13:47:08.217Z,1.00
2019-01-10T13:49:38.093Z,1.00
2019-01-10T13:52:08.412Z,1.10
2019-01-10T13:54:40.779Z,0.90
2019-01-10T13:57:10.404Z,1.90
2019-01-10T13:59:39.973Z,0.80
2019-01-10T14:02:10.945Z,1.00
2019-01-10T14:04:41.101Z,1.30
2019-01-10T14:07:11.701Z,1.20
2019-01-10T14:09:42.185Z,2.17
2019-01-10T14:12:11.941Z,1.43
2019-01-10T14:14:41.817Z,1.20
2019-01-10T14:17:12.924Z,1.00
2019-01-10T14:19:43.197Z,1.07
2019-01-10T14:22:13.600Z,1.30
2019-01-10T14:24:43.980Z,3.70
2019-01-10T14:27:15.984Z,2.83
2019-01-10T14:29:50.425Z,1.37
2019-01-10T14:32:20.725Z,1.20
2019-01-10T14:34:51.165Z,0.93
2019-01-10T14:37:21.493Z,1.07
2019-01-10T14:39:52.254Z,1.07
2019-01-10T14:42:22.113Z,1.20
2019-01-10T14:44:52.329Z,1.02
2019-01-10T14:47:22.681Z,1.20
2019-01-10T14:49:52.416Z,1.20
2019-01-10T14:52:23.485Z,1.07
2019-01-10T14:54:54.378Z,1.00
2019-01-10T14:57:24.332Z,0.90
2019-01-10T14:59:54.881Z,0.70
2019-01-10T15:02:25.108Z,1.10
2019-01-10T15:04:55.513Z,0.80
2019-01-10T15:07:26.369Z,1.00
2019-01-10T15:09:56.789Z,0.97
2019-01-10T15:12:26.558Z,1.10
2019-01-10T15:14:57.010Z,1.07
2019-01-10T15:17:26.741Z,1.20
2019-01-10T15:19:57.149Z,1.00
2019-01-10T15:22:26.929Z,1.20
2019-01-10T15:24:57.741Z,1.43
2019-01-10T15:27:27.973Z,1.00
2019-01-10T15:29:59.383Z,0.93
2019-01-10T15:32:30.072Z,1.00
2019-01-10T15:35:00.598Z,0.97
2019-01-10T15:37:30.673Z,0.80
2019-01-10T15:40:01.503Z,1.00
2019-01-10T15:42:31.996Z,1.40
2019-01-10T15:45:02.511Z,1.10
2019-01-10T15:47:32.982Z,0.97
2019-01-10T15:50:03.255Z,0.90
2019-01-10T15:52:34.901Z,1.13
2019-01-10T15:55:05.269Z,1.23
2019-01-10T15:57:34.936Z,0.93
2019-01-10T16:00:06.533Z,1.50
2019-01-10T16:02:37.234Z,0.97
2019-01-10T16:05:08.190Z,1.27
2019-01-10T16:07:38.313Z,1.43
2019-01-10T16:10:09.313Z,1.37
2019-01-10T16:12:39.869Z,0.80
2019-01-10T16:15:11.081Z,0.80
2019-01-10T16:17:41.910Z,1.63
2019-01-10T16:20:12.310Z,1.63
2019-01-10T16:22:46.223Z,1.60
2019-01-10T16:25:15.849Z,1.10
2019-01-10T16:27:46.678Z,1.30
2019-01-10T16:30:18.477Z,1.40
2019-01-10T16:32:48.709Z,0.90
2019-01-10T16:35:20.331Z,1.10
2019-01-10T16:37:50.781Z,1.40
2019-01-10T16:40:25.560Z,1.07
2019-01-10T16:42:56.829Z,1.50
2019-01-10T16:45:28.468Z,1.30
2019-01-10T16:48:00.134Z,1.80
2019-01-10T16:50:30.537Z,3.70
2019-01-10T16:53:00.514Z,2.40
2019-01-10T16:55:30.656Z,1.50
2019-01-10T16:58:01.137Z,2.00
2019-01-10T17:00:31.910Z,1.73
2019-01-10T17:03:01.821Z,1.53
2019-01-10T17:05:32.397Z,1.57
2019-01-10T17:08:02.110Z,2.17
2019-01-10T17:10:33.224Z,2.40
2019-01-10T17:13:04.185Z,1.90
2019-01-10T17:15:34.397Z,2.20
2019-01-10T17:18:04.993Z,2.23
2019-01-10T17:20:35.497Z,4.20
2019-01-10T17:23:05.881Z,3.17
2019-01-10T17:25:36.922Z,2.17
2019-01-10T17:28:07.446Z,2.03
2019-01-10T17:30:38.137Z,2.57
2019-01-10T17:33:07.861Z,2.90
2019-01-10T17:35:37.802Z,1.60
2019-01-10T17:38:11.583Z,5.50
2019-01-10T17:40:41.774Z,1.63
2019-01-10T17:43:11.714Z,2.03
2019-01-10T17:45:42.809Z,2.67
2019-01-10T17:48:13.373Z,1.83
2019-01-10T17:50:43.836Z,1.70
2019-01-10T17:53:13.502Z,1.67
2019-01-10T17:55:43.209Z,1.67
2019-01-10T17:58:12.956Z,2.07
2019-01-10T18:00:43.820Z,1.67
2019-01-10T18:03:14.965Z,1.40
2019-01-10T18:05:45.397Z,1.60
2019-01-10T18:08:25.401Z,1.70
2019-01-10T18:10:55.773Z,2.00
2019-01-10T18:13:26.305Z,0.97
2019-01-10T18:15:56.394Z,1.27
2019-01-10T18:18:27.056Z,1.30
2019-01-10T18:20:58.841Z,1.23
2019-01-10T18:23:30.692Z,1.40
2019-01-10T18:26:00.872Z,1.40
2019-01-10T18:28:30.773Z,2.85
2019-01-10T18:31:00.688Z,1.47
2019-01-10T18:33:31.576Z,1.90
2019-01-10T18:36:02.973Z,1.70
2019-01-10T18:38:33.244Z,1.80
2019-01-10T18:41:05.627Z,1.70
2019-01-10T18:43:35.609Z,1.80
2019-01-10T18:46:05.945Z,1.70
2019-01-10T18:48:39.877Z,2.33
2019-01-10T18:51:08.983Z,2.30
2019-01-10T18:53:46.682Z,2.70
2019-01-10T18:56:16.369Z,2.00
2019-01-10T18:58:46.158Z,2.25
2019-01-10T19:01:16.064Z,1.67
2019-01-10T19:03:45.842Z,2.00
2019-01-10T19:06:16.376Z,2.20
2019-01-10T19:08:46.673Z,1.90
2019-01-10T19:11:20.789Z,1.60
2019-01-10T19:13:51.005Z,2.00
2019-01-10T19:16:21.189Z,1.80
2019-01-10T19:18:51.646Z,1.77
2019-01-10T19:21:22.247Z,1.60
2019-01-10T19:23:53.489Z,2.00
2019-01-10T19:26:25.013Z,1.63
2019-01-10T19:28:54.541Z,1.40
2019-01-10T19:31:25.785Z,1.73
2019-01-10T19:33:59.714Z,1.50
2019-01-10T19:36:39.548Z,1.50
2019-01-10T19:39:11.302Z,1.50
2019-01-10T19:41:41.185Z,1.37
2019-01-10T19:44:13.740Z,1.37
2019-01-10T19:46:46.229Z,1.60
2019-01-10T19:49:16.590Z,1.60
2019-01-10T19:51:46.936Z,1.30
2019-01-10T19:54:17.957Z,1.50
2019-01-10T19:56:48.357Z,1.00
2019-01-10T19:59:19.089Z,1.40
2019-01-10T20:01:51.301Z,1.20
2019-01-10T20:04:23.038Z,1.20
2019-01-10T20:06:53.437Z,1.53
2019-01-10T20:09:29.832Z,1.20
2019-01-10T20:11:56.745Z,1.15
2019-01-10T20:14:26.164Z,1.30
2019-01-10T20:16:56.569Z,1.00
2019-01-10T20:19:26.593Z,0.93
2019-01-10T20:21:56.670Z,1.10
2019-01-10T20:24:26.179Z,0.83
2019-01-10T20:26:55.907Z,1.10
2019-01-10T20:29:26.040Z,1.20
2019-01-10T20:31:55.834Z,1.27
2019-01-10T20:34:26.593Z,1.10
2019-01-10T20:36:56.365Z,1.00
2019-01-10T20:39:27.549Z,1.03
2019-01-10T20:42:01.803Z,1.10
2019-01-10T20:44:29.588Z,1.00
2019-01-10T20:46:59.296Z,0.97
2019-01-10T20:49:28.957Z,0.90
2019-01-10T20:51:59.053Z,1.10
2019-01-10T20:54:29.446Z,0.90
2019-01-10T20:56:59.806Z,1.33
2019-01-10T20:59:30.593Z,0.87
2019-01-10T21:02:02.461Z,1.20
2019-01-10T21:04:32.809Z,0.87
2019-01-10T21:07:04.346Z,0.90
2019-01-10T21:09:34.296Z,1.40
2019-01-10T21:12:03.956Z,1.10
2019-01-10T21:14:34.488Z,1.10
2019-01-10T21:17:04.896Z,1.20
2019-01-10T21:19:36.245Z,1.20
2019-01-10T21:22:06.904Z,1.10
2019-01-10T21:24:37.885Z,1.10
2019-01-10T21:27:09.110Z,0.93
2019-01-10T21:29:39.592Z,1.00
2019-01-10T21:32:10.041Z,1.40
2019-01-10T21:34:40.349Z,1.10
2019-01-10T21:37:09.997Z,1.30
2019-01-10T21:39:42.289Z,1.10
2019-01-10T21:42:12.793Z,1.30
2019-01-10T21:44:43.012Z,1.30
2019-01-10T21:47:14.013Z,1.30
2019-01-10T21:49:45.748Z,1.40
2019-01-10T21:52:17.093Z,1.30
2019-01-10T21:54:47.517Z,1.40
2019-01-10T21:57:17.363Z,1.30
2019-01-10T21:59:47.329Z,1.40
2019-01-10T22:02:17.121Z,1.60
2019-01-10T22:04:47.869Z,1.50
2019-01-10T22:07:18.626Z,1.50
2019-01-10T22:09:48.176Z,1.57
2019-01-10T22:12:18.288Z,1.50
2019-01-10T22:14:47.865Z,1.40
2019-01-10T22:17:17.587Z,1.37
2019-01-10T22:19:48.043Z,1.30
2019-01-10T22:22:18.458Z,1.40
2019-01-10T22:24:48.817Z,1.62
2019-01-10T22:27:18.686Z,1.37
2019-01-10T22:29:48.303Z,1.67
2019-01-10T22:32:18.586Z,1.60
2019-01-10T22:34:48.780Z,1.67
2019-01-10T22:37:18.854Z,1.87
2019-01-10T22:39:49.045Z,1.60
2019-01-10T22:42:18.921Z,1.70
2019-01-10T22:44:48.913Z,1.97
2019-01-10T22:47:18.870Z,1.80
2019-01-10T22:49:50.105Z,1.90
2019-01-10T22:52:21.687Z,1.73
2019-01-10T22:54:51.202Z,1.90
2019-01-10T22:57:21.801Z,1.73
2019-01-10T22:59:51.902Z,1.80
2019-01-10T23:02:21.216Z,2.17
2019-01-10T23:04:51.330Z,1.77
2019-01-10T23:07:21.254Z,2.00
2019-01-10T23:09:51.295Z,1.70
2019-01-10T23:12:20.908Z,2.00
2019-01-10T23:14:51.281Z,1.80
2019-01-10T23:17:20.965Z,2.13
2019-01-10T23:19:50.958Z,1.97
2019-01-10T23:22:20.591Z,2.10
2019-01-10T23:24:57.463Z,2.57
2019-01-10T23:27:27.033Z,2.20
2019-01-10T23:29:57.429Z,2.30
2019-01-10T23:32:28.157Z,2.40
2019-01-10T23:34:58.332Z,2.40
2019-01-10T23:37:31.086Z,2.58
2019-01-10T23:40:01.853Z,2.25
2019-01-10T23:42:32.028Z,2.20
2019-01-10T23:45:02.377Z,2.50
2019-01-10T23:47:35.101Z,2.37
2019-01-10T23:50:06.337Z,2.10
2019-01-10T23:52:36.024Z,2.70
2019-01-10T23:55:05.586Z,2.40
2019-01-10T23:57:35.929Z,2.33
